sensor_id;sensor_type;location;lat;lon;timestamp;temperature;humidity
3001;DHT22;1510;51.072;6.678;2022-08-25T00:01:47;21.20;11.30
3001;DHT22;1510;51.072;6.678;2022-08-25T00:04:21;21.10;11.50
3001;DHT22;1510;51.072;6.678;2022-08-25T00:07:16;21.00;11.70
3001;DHT22;1510;51.072;6.678;2022-08-25T00:09:50;20.80;12.00
3001;DHT22;1510;51.072;6.678;2022-08-25T00:12:37;20.80;12.30
3001;DHT22;1510;51.072;6.678;2022-08-25T00:15:17;20.80;11.80
3001;DHT22;1510;51.072;6.678;2022-08-25T00:17:55;20.70;11.80
3001;DHT22;1510;51.072;6.678;2022-08-25T00:20:57;20.60;12.70
3001;DHT22;1510;51.072;6.678;2022-08-25T00:23:36;20.30;14.60
3001;DHT22;1510;51.072;6.678;2022-08-25T00:26:08;20.10;15.40
3001;DHT22;1510;51.072;6.678;2022-08-25T00:28:40;20.00;16.70
3001;DHT22;1510;51.072;6.678;2022-08-25T00:31:17;19.80;17.60
3001;DHT22;1510;51.072;6.678;2022-08-25T00:34:00;19.60;18.80
3001;DHT22;1510;51.072;6.678;2022-08-25T00:36:43;19.40;19.30
3001;DHT22;1510;51.072;6.678;2022-08-25T00:39:12;19.40;19.30
3001;DHT22;1510;51.072;6.678;2022-08-25T00:41:44;19.20;20.10
3001;DHT22;1510;51.072;6.678;2022-08-25T00:44:23;19.10;20.80
3001;DHT22;1510;51.072;6.678;2022-08-25T00:47:06;19.00;21.30
3001;DHT22;1510;51.072;6.678;2022-08-25T00:49:45;18.90;21.30
3001;DHT22;1510;51.072;6.678;2022-08-25T00:52:24;18.80;21.80
3001;DHT22;1510;51.072;6.678;2022-08-25T00:54:58;18.80;22.40
3001;DHT22;1510;51.072;6.678;2022-08-25T00:57:30;18.80;23.10
3001;DHT22;1510;51.072;6.678;2022-08-25T01:00:08;18.70;22.90
3001;DHT22;1510;51.072;6.678;2022-08-25T01:05:43;18.60;23.70
3001;DHT22;1510;51.072;6.678;2022-08-25T01:08:33;18.50;24.60
3001;DHT22;1510;51.072;6.678;2022-08-25T01:11:09;18.50;25.00
3001;DHT22;1510;51.072;6.678;2022-08-25T01:13:47;18.40;24.80
3001;DHT22;1510;51.072;6.678;2022-08-25T01:16:27;18.40;25.20
3001;DHT22;1510;51.072;6.678;2022-08-25T01:18:59;18.40;25.30
3001;DHT22;1510;51.072;6.678;2022-08-25T01:21:36;18.50;24.90
3001;DHT22;1510;51.072;6.678;2022-08-25T01:24:23;18.50;24.40
3001;DHT22;1510;51.072;6.678;2022-08-25T01:27:03;18.40;25.10
3001;DHT22;1510;51.072;6.678;2022-08-25T01:29:51;18.40;25.90
3001;DHT22;1510;51.072;6.678;2022-08-25T01:32:34;18.30;26.80
3001;DHT22;1510;51.072;6.678;2022-08-25T01:35:13;18.10;26.40
3001;DHT22;1510;51.072;6.678;2022-08-25T01:38:08;18.20;26.80
3001;DHT22;1510;51.072;6.678;2022-08-25T01:40:50;18.20;25.70
3001;DHT22;1510;51.072;6.678;2022-08-25T01:43:35;18.20;26.40
3001;DHT22;1510;51.072;6.678;2022-08-25T01:46:16;18.30;25.80
3001;DHT22;1510;51.072;6.678;2022-08-25T01:48:55;18.20;25.80
3001;DHT22;1510;51.072;6.678;2022-08-25T01:51:41;18.10;25.70
3001;DHT22;1510;51.072;6.678;2022-08-25T01:54:14;18.00;25.60
3001;DHT22;1510;51.072;6.678;2022-08-25T01:56:45;17.80;26.40
3001;DHT22;1510;51.072;6.678;2022-08-25T01:59:19;17.90;26.50
3001;DHT22;1510;51.072;6.678;2022-08-25T02:01:59;17.90;26.90
3001;DHT22;1510;51.072;6.678;2022-08-25T02:04:46;18.10;26.60
3001;DHT22;1510;51.072;6.678;2022-08-25T02:07:30;17.90;26.70
3001;DHT22;1510;51.072;6.678;2022-08-25T02:09:59;18.00;26.90
3001;DHT22;1510;51.072;6.678;2022-08-25T02:12:36;17.90;27.30
3001;DHT22;1510;51.072;6.678;2022-08-25T02:15:15;17.80;28.20
3001;DHT22;1510;51.072;6.678;2022-08-25T02:17:48;17.90;28.50
3001;DHT22;1510;51.072;6.678;2022-08-25T02:20:47;17.90;28.30
3001;DHT22;1510;51.072;6.678;2022-08-25T02:23:22;18.00;27.40
3001;DHT22;1510;51.072;6.678;2022-08-25T02:26:01;18.00;27.90
3001;DHT22;1510;51.072;6.678;2022-08-25T02:28:46;18.00;27.80
3001;DHT22;1510;51.072;6.678;2022-08-25T02:31:24;18.10;26.40
3001;DHT22;1510;51.072;6.678;2022-08-25T02:34:11;18.20;27.80
3001;DHT22;1510;51.072;6.678;2022-08-25T02:36:48;18.10;26.90
3001;DHT22;1510;51.072;6.678;2022-08-25T02:39:22;18.10;27.00
3001;DHT22;1510;51.072;6.678;2022-08-25T02:42:07;18.00;27.20
3001;DHT22;1510;51.072;6.678;2022-08-25T02:44:42;17.80;27.20
3001;DHT22;1510;51.072;6.678;2022-08-25T02:47:25;17.70;28.20
3001;DHT22;1510;51.072;6.678;2022-08-25T02:49:59;17.70;28.20
3001;DHT22;1510;51.072;6.678;2022-08-25T02:52:36;17.60;30.00
3001;DHT22;1510;51.072;6.678;2022-08-25T02:55:15;17.70;30.30
3001;DHT22;1510;51.072;6.678;2022-08-25T02:57:56;17.60;30.10
3001;DHT22;1510;51.072;6.678;2022-08-25T03:00:23;17.60;30.10
3001;DHT22;1510;51.072;6.678;2022-08-25T03:03:04;17.60;29.80
3001;DHT22;1510;51.072;6.678;2022-08-25T03:05:42;17.70;29.50
3001;DHT22;1510;51.072;6.678;2022-08-25T03:08:21;17.80;28.80
3001;DHT22;1510;51.072;6.678;2022-08-25T03:10:53;17.80;29.70
3001;DHT22;1510;51.072;6.678;2022-08-25T03:13:41;17.60;28.40
3001;DHT22;1510;51.072;6.678;2022-08-25T03:16:13;17.60;28.40
3001;DHT22;1510;51.072;6.678;2022-08-25T03:18:42;17.70;30.30
3001;DHT22;1510;51.072;6.678;2022-08-25T03:21:27;17.80;28.90
3001;DHT22;1510;51.072;6.678;2022-08-25T03:23:57;17.50;28.60
3001;DHT22;1510;51.072;6.678;2022-08-25T03:26:32;17.50;29.30
3001;DHT22;1510;51.072;6.678;2022-08-25T03:29:18;17.60;29.40
3001;DHT22;1510;51.072;6.678;2022-08-25T03:31:53;17.40;29.60
3001;DHT22;1510;51.072;6.678;2022-08-25T03:34:27;17.30;29.80
3001;DHT22;1510;51.072;6.678;2022-08-25T03:37:00;17.20;30.00
3001;DHT22;1510;51.072;6.678;2022-08-25T03:39:32;17.10;30.30
3001;DHT22;1510;51.072;6.678;2022-08-25T03:42:03;17.10;31.20
3001;DHT22;1510;51.072;6.678;2022-08-25T03:44:31;17.00;31.60
3001;DHT22;1510;51.072;6.678;2022-08-25T03:47:14;16.90;32.40
3001;DHT22;1510;51.072;6.678;2022-08-25T03:49:50;16.90;32.40
3001;DHT22;1510;51.072;6.678;2022-08-25T03:52:21;16.90;32.40
3001;DHT22;1510;51.072;6.678;2022-08-25T03:55:00;16.80;32.30
3001;DHT22;1510;51.072;6.678;2022-08-25T03:57:33;16.70;32.20
3001;DHT22;1510;51.072;6.678;2022-08-25T04:00:03;16.80;32.70
3001;DHT22;1510;51.072;6.678;2022-08-25T04:02:41;16.70;32.80
3001;DHT22;1510;51.072;6.678;2022-08-25T04:05:35;16.70;33.00
3001;DHT22;1510;51.072;6.678;2022-08-25T04:08:24;16.70;33.70
3001;DHT22;1510;51.072;6.678;2022-08-25T04:11:07;16.90;33.40
3001;DHT22;1510;51.072;6.678;2022-08-25T04:13:44;17.00;32.50
3001;DHT22;1510;51.072;6.678;2022-08-25T04:16:16;17.30;32.80
3001;DHT22;1510;51.072;6.678;2022-08-25T04:18:44;17.10;32.60
3001;DHT22;1510;51.072;6.678;2022-08-25T04:21:13;17.10;32.60
3001;DHT22;1510;51.072;6.678;2022-08-25T04:23:50;17.00;32.50
3001;DHT22;1510;51.072;6.678;2022-08-25T04:26:25;16.90;33.20
3001;DHT22;1510;51.072;6.678;2022-08-25T04:29:04;16.70;32.20
3001;DHT22;1510;51.072;6.678;2022-08-25T04:32:02;16.70;32.80
3001;DHT22;1510;51.072;6.678;2022-08-25T04:34:37;16.50;33.90
3001;DHT22;1510;51.072;6.678;2022-08-25T04:37:42;16.50;35.20
3001;DHT22;1510;51.072;6.678;2022-08-25T04:40:44;16.50;36.70
3001;DHT22;1510;51.072;6.678;2022-08-25T04:43:28;16.40;37.60
3001;DHT22;1510;51.072;6.678;2022-08-25T04:46:05;16.60;37.90
3001;DHT22;1510;51.072;6.678;2022-08-25T04:48:35;16.70;37.70
3001;DHT22;1510;51.072;6.678;2022-08-25T04:51:11;16.60;38.20
3001;DHT22;1510;51.072;6.678;2022-08-25T04:53:57;16.50;38.20
3001;DHT22;1510;51.072;6.678;2022-08-25T04:56:24;16.40;39.60
3001;DHT22;1510;51.072;6.678;2022-08-25T04:58:52;16.70;39.00
3001;DHT22;1510;51.072;6.678;2022-08-25T05:01:21;16.70;37.50
3001;DHT22;1510;51.072;6.678;2022-08-25T05:03:54;16.60;38.10
3001;DHT22;1510;51.072;6.678;2022-08-25T05:06:21;16.60;38.70
3001;DHT22;1510;51.072;6.678;2022-08-25T05:08:48;16.60;39.00
3001;DHT22;1510;51.072;6.678;2022-08-25T05:11:16;16.50;38.90
3001;DHT22;1510;51.072;6.678;2022-08-25T05:13:44;16.60;39.60
3001;DHT22;1510;51.072;6.678;2022-08-25T05:16:12;16.70;41.30
3001;DHT22;1510;51.072;6.678;2022-08-25T05:18:39;16.60;41.20
3001;DHT22;1510;51.072;6.678;2022-08-25T05:21:09;16.60;42.20
3001;DHT22;1510;51.072;6.678;2022-08-25T05:23:37;16.70;43.10
3001;DHT22;1510;51.072;6.678;2022-08-25T05:26:06;16.80;43.30
3001;DHT22;1510;51.072;6.678;2022-08-25T05:28:33;16.90;43.00
3001;DHT22;1510;51.072;6.678;2022-08-25T05:31:02;17.10;42.70
3001;DHT22;1510;51.072;6.678;2022-08-25T05:33:29;17.40;41.90
3001;DHT22;1510;51.072;6.678;2022-08-25T05:35:56;17.60;40.90
3001;DHT22;1510;51.072;6.678;2022-08-25T05:38:25;17.90;39.40
3001;DHT22;1510;51.072;6.678;2022-08-25T05:40:52;18.20;40.30
3001;DHT22;1510;51.072;6.678;2022-08-25T05:43:22;18.40;36.50
3001;DHT22;1510;51.072;6.678;2022-08-25T05:45:48;18.40;33.80
3001;DHT22;1510;51.072;6.678;2022-08-25T05:48:15;18.60;34.90
3001;DHT22;1510;51.072;6.678;2022-08-25T05:50:50;18.70;36.30
3001;DHT22;1510;51.072;6.678;2022-08-25T05:53:18;18.70;34.20
3001;DHT22;1510;51.072;6.678;2022-08-25T05:55:46;18.70;34.10
3001;DHT22;1510;51.072;6.678;2022-08-25T05:58:13;19.00;34.60
3001;DHT22;1510;51.072;6.678;2022-08-25T06:00:40;18.90;33.90
3001;DHT22;1510;51.072;6.678;2022-08-25T06:03:07;18.90;34.30
3001;DHT22;1510;51.072;6.678;2022-08-25T06:05:33;19.20;33.00
3001;DHT22;1510;51.072;6.678;2022-08-25T06:08:00;19.30;32.20
3001;DHT22;1510;51.072;6.678;2022-08-25T06:10:27;19.30;32.40
3001;DHT22;1510;51.072;6.678;2022-08-25T06:12:56;19.50;31.40
3001;DHT22;1510;51.072;6.678;2022-08-25T06:15:23;19.70;31.00
3001;DHT22;1510;51.072;6.678;2022-08-25T06:17:51;19.90;30.60
3001;DHT22;1510;51.072;6.678;2022-08-25T06:20:23;20.00;31.20
3001;DHT22;1510;51.072;6.678;2022-08-25T06:22:51;20.20;31.40
3001;DHT22;1510;51.072;6.678;2022-08-25T06:25:20;20.30;29.90
3001;DHT22;1510;51.072;6.678;2022-08-25T06:27:48;20.50;29.50
3001;DHT22;1510;51.072;6.678;2022-08-25T06:30:18;20.60;28.50
3001;DHT22;1510;51.072;6.678;2022-08-25T06:32:46;20.90;28.10
3001;DHT22;1510;51.072;6.678;2022-08-25T06:35:16;21.00;27.80
3001;DHT22;1510;51.072;6.678;2022-08-25T06:37:44;21.20;27.40
3001;DHT22;1510;51.072;6.678;2022-08-25T06:40:12;21.30;27.10
3001;DHT22;1510;51.072;6.678;2022-08-25T06:42:39;21.40;26.10
3001;DHT22;1510;51.072;6.678;2022-08-25T06:45:06;21.60;25.80
3001;DHT22;1510;51.072;6.678;2022-08-25T06:47:35;21.70;24.80
3001;DHT22;1510;51.072;6.678;2022-08-25T06:50:03;21.90;24.10
3001;DHT22;1510;51.072;6.678;2022-08-25T06:52:30;22.00;23.60
3001;DHT22;1510;51.072;6.678;2022-08-25T06:54:57;22.20;23.40
3001;DHT22;1510;51.072;6.678;2022-08-25T06:57:24;22.40;22.70
3001;DHT22;1510;51.072;6.678;2022-08-25T06:59:51;22.40;21.70
3001;DHT22;1510;51.072;6.678;2022-08-25T07:02:17;22.70;22.80
3001;DHT22;1510;51.072;6.678;2022-08-25T07:04:46;22.70;21.60
3001;DHT22;1510;51.072;6.678;2022-08-25T07:07:12;22.80;21.20
3001;DHT22;1510;51.072;6.678;2022-08-25T07:09:39;22.90;21.80
3001;DHT22;1510;51.072;6.678;2022-08-25T07:12:06;23.10;21.50
3001;DHT22;1510;51.072;6.678;2022-08-25T07:14:33;23.20;20.80
3001;DHT22;1510;51.072;6.678;2022-08-25T07:17:00;23.30;19.60
3001;DHT22;1510;51.072;6.678;2022-08-25T07:19:27;23.50;19.40
3001;DHT22;1510;51.072;6.678;2022-08-25T07:21:55;23.60;18.60
3001;DHT22;1510;51.072;6.678;2022-08-25T07:24:22;23.70;19.10
3001;DHT22;1510;51.072;6.678;2022-08-25T07:26:50;23.80;17.20
3001;DHT22;1510;51.072;6.678;2022-08-25T07:29:18;24.00;16.00
3001;DHT22;1510;51.072;6.678;2022-08-25T07:31:45;24.10;15.20
3001;DHT22;1510;51.072;6.678;2022-08-25T07:34:12;24.20;13.90
3001;DHT22;1510;51.072;6.678;2022-08-25T07:36:58;24.40;15.30
3001;DHT22;1510;51.072;6.678;2022-08-25T07:39:32;24.40;13.30
3001;DHT22;1510;51.072;6.678;2022-08-25T07:42:14;24.50;12.30
3001;DHT22;1510;51.072;6.678;2022-08-25T07:47:56;24.70;12.60
3001;DHT22;1510;51.072;6.678;2022-08-25T07:50:51;24.80;11.20
3001;DHT22;1510;51.072;6.678;2022-08-25T07:53:21;24.70;10.50
3001;DHT22;1510;51.072;6.678;2022-08-25T07:55:54;25.10;9.80
3001;DHT22;1510;51.072;6.678;2022-08-25T08:01:38;25.80;8.20
3001;DHT22;1510;51.072;6.678;2022-08-25T08:04:29;26.30;6.60
3001;DHT22;1510;51.072;6.678;2022-08-25T08:07:08;26.50;4.60
3001;DHT22;1510;51.072;6.678;2022-08-25T08:10:58;27.00;4.00
3001;DHT22;1510;51.072;6.678;2022-08-25T08:14:05;27.20;2.50
3001;DHT22;1510;51.072;6.678;2022-08-25T08:16:35;27.50;1.60
3001;DHT22;1510;51.072;6.678;2022-08-25T08:19:03;27.90;1.10
3001;DHT22;1510;51.072;6.678;2022-08-25T08:21:35;28.00;1.00
3001;DHT22;1510;51.072;6.678;2022-08-25T08:24:19;28.30;1.00
3001;DHT22;1510;51.072;6.678;2022-08-25T08:27:06;28.60;1.00
3001;DHT22;1510;51.072;6.678;2022-08-25T08:30:46;28.90;1.00
3001;DHT22;1510;51.072;6.678;2022-08-25T08:33:07;28.90;1.00
3001;DHT22;1510;51.072;6.678;2022-08-25T08:35:36;29.00;1.00
3001;DHT22;1510;51.072;6.678;2022-08-25T08:38:13;29.20;1.00
3001;DHT22;1510;51.072;6.678;2022-08-25T08:40:58;29.00;1.00
3001;DHT22;1510;51.072;6.678;2022-08-25T08:43:44;29.20;1.00
3001;DHT22;1510;51.072;6.678;2022-08-25T08:46:36;29.50;1.00
3001;DHT22;1510;51.072;6.678;2022-08-25T08:49:19;30.00;1.00
3001;DHT22;1510;51.072;6.678;2022-08-25T08:52:04;30.40;1.00
3001;DHT22;1510;51.072;6.678;2022-08-25T08:54:57;30.70;1.00
3001;DHT22;1510;51.072;6.678;2022-08-25T08:57:42;30.80;1.00
3001;DHT22;1510;51.072;6.678;2022-08-25T09:00:26;31.00;1.00
3001;DHT22;1510;51.072;6.678;2022-08-25T09:03:20;31.00;1.00
3001;DHT22;1510;51.072;6.678;2022-08-25T09:05:58;30.70;1.00
3001;DHT22;1510;51.072;6.678;2022-08-25T09:08:26;31.10;1.00
3001;DHT22;1510;51.072;6.678;2022-08-25T09:11:01;31.70;1.00
3001;DHT22;1510;51.072;6.678;2022-08-25T09:14:06;32.30;1.00
3001;DHT22;1510;51.072;6.678;2022-08-25T09:16:43;32.00;1.00
3001;DHT22;1510;51.072;6.678;2022-08-25T09:19:46;32.50;1.00
3001;DHT22;1510;51.072;6.678;2022-08-25T09:22:35;32.40;1.00
3001;DHT22;1510;51.072;6.678;2022-08-25T09:25:39;32.30;1.00
3001;DHT22;1510;51.072;6.678;2022-08-25T09:28:20;32.50;1.00
3001;DHT22;1510;51.072;6.678;2022-08-25T09:31:14;32.80;1.00
3001;DHT22;1510;51.072;6.678;2022-08-25T09:33:41;32.70;1.00
3001;DHT22;1510;51.072;6.678;2022-08-25T09:36:10;33.00;1.00
3001;DHT22;1510;51.072;6.678;2022-08-25T09:38:39;33.30;1.00
3001;DHT22;1510;51.072;6.678;2022-08-25T09:41:09;33.60;1.00
3001;DHT22;1510;51.072;6.678;2022-08-25T09:43:39;34.00;1.00
3001;DHT22;1510;51.072;6.678;2022-08-25T09:46:15;33.60;1.00
3001;DHT22;1510;51.072;6.678;2022-08-25T09:48:53;34.20;1.00
3001;DHT22;1510;51.072;6.678;2022-08-25T09:51:26;33.90;1.00
3001;DHT22;1510;51.072;6.678;2022-08-25T09:54:02;33.90;1.00
3001;DHT22;1510;51.072;6.678;2022-08-25T09:56:31;34.40;1.00
3001;DHT22;1510;51.072;6.678;2022-08-25T09:59:19;34.80;1.00
3001;DHT22;1510;51.072;6.678;2022-08-25T10:02:24;35.50;1.00
3001;DHT22;1510;51.072;6.678;2022-08-25T10:05:00;35.20;1.00
3001;DHT22;1510;51.072;6.678;2022-08-25T10:07:52;35.00;1.00
3001;DHT22;1510;51.072;6.678;2022-08-25T10:10:28;35.10;1.00
3001;DHT22;1510;51.072;6.678;2022-08-25T10:12:56;34.50;1.00
3001;DHT22;1510;51.072;6.678;2022-08-25T10:15:31;35.00;1.00
3001;DHT22;1510;51.072;6.678;2022-08-25T10:18:22;35.40;1.00
3001;DHT22;1510;51.072;6.678;2022-08-25T10:21:05;35.80;1.00
3001;DHT22;1510;51.072;6.678;2022-08-25T10:23:34;36.10;1.00
3001;DHT22;1510;51.072;6.678;2022-08-25T10:26:07;36.00;1.00
3001;DHT22;1510;51.072;6.678;2022-08-25T10:28:43;36.30;1.00
3001;DHT22;1510;51.072;6.678;2022-08-25T10:31:19;36.50;1.00
3001;DHT22;1510;51.072;6.678;2022-08-25T10:34:03;36.40;1.00
3001;DHT22;1510;51.072;6.678;2022-08-25T10:36:49;35.60;1.00
3001;DHT22;1510;51.072;6.678;2022-08-25T10:39:29;35.80;1.00
3001;DHT22;1510;51.072;6.678;2022-08-25T10:42:13;36.50;1.00
3001;DHT22;1510;51.072;6.678;2022-08-25T10:45:07;37.10;1.00
3001;DHT22;1510;51.072;6.678;2022-08-25T10:48:30;37.20;1.00
3001;DHT22;1510;51.072;6.678;2022-08-25T10:51:06;37.00;1.00
3001;DHT22;1510;51.072;6.678;2022-08-25T10:57:31;37.30;1.00
3001;DHT22;1510;51.072;6.678;2022-08-25T11:00:18;37.30;1.00
3001;DHT22;1510;51.072;6.678;2022-08-25T11:03:22;37.70;1.00
3001;DHT22;1510;51.072;6.678;2022-08-25T11:05:58;38.00;1.00
3001;DHT22;1510;51.072;6.678;2022-08-25T11:08:36;38.20;1.00
3001;DHT22;1510;51.072;6.678;2022-08-25T11:11:11;37.90;1.00
3001;DHT22;1510;51.072;6.678;2022-08-25T11:13:46;37.70;1.00
3001;DHT22;1510;51.072;6.678;2022-08-25T11:16:17;37.70;1.00
3001;DHT22;1510;51.072;6.678;2022-08-25T11:18:56;37.40;1.00
3001;DHT22;1510;51.072;6.678;2022-08-25T11:21:32;37.10;1.00
3001;DHT22;1510;51.072;6.678;2022-08-25T11:24:06;37.30;1.00
3001;DHT22;1510;51.072;6.678;2022-08-25T11:26:40;37.60;1.00
3001;DHT22;1510;51.072;6.678;2022-08-25T11:29:15;37.80;1.00
3001;DHT22;1510;51.072;6.678;2022-08-25T11:31:50;38.10;1.00
3001;DHT22;1510;51.072;6.678;2022-08-25T11:34:20;38.60;1.00
3001;DHT22;1510;51.072;6.678;2022-08-25T11:36:53;39.00;1.00
3001;DHT22;1510;51.072;6.678;2022-08-25T11:39:36;39.00;1.00
3001;DHT22;1510;51.072;6.678;2022-08-25T11:42:15;39.60;1.00
3001;DHT22;1510;51.072;6.678;2022-08-25T11:44:57;39.00;1.00
3001;DHT22;1510;51.072;6.678;2022-08-25T11:47:39;39.50;1.00
3001;DHT22;1510;51.072;6.678;2022-08-25T11:50:25;39.60;1.00
3001;DHT22;1510;51.072;6.678;2022-08-25T11:52:53;39.50;1.00
3001;DHT22;1510;51.072;6.678;2022-08-25T11:55:45;39.20;1.00
3001;DHT22;1510;51.072;6.678;2022-08-25T11:58:44;39.50;1.00
3001;DHT22;1510;51.072;6.678;2022-08-25T12:04:29;39.90;1.00
3001;DHT22;1510;51.072;6.678;2022-08-25T12:07:17;40.50;1.00
3001;DHT22;1510;51.072;6.678;2022-08-25T12:16:00;41.10;1.00
3001;DHT22;1510;51.072;6.678;2022-08-25T12:18:50;41.30;1.00
3001;DHT22;1510;51.072;6.678;2022-08-25T12:21:35;42.20;1.00
3001;DHT22;1510;51.072;6.678;2022-08-25T12:24:10;41.60;1.00
3001;DHT22;1510;51.072;6.678;2022-08-25T12:26:44;41.40;1.00
3001;DHT22;1510;51.072;6.678;2022-08-25T12:29:30;41.80;1.00
3001;DHT22;1510;51.072;6.678;2022-08-25T12:32:27;41.30;1.00
3001;DHT22;1510;51.072;6.678;2022-08-25T12:35:20;41.30;1.00
3001;DHT22;1510;51.072;6.678;2022-08-25T12:37:58;41.20;1.00
3001;DHT22;1510;51.072;6.678;2022-08-25T12:40:30;41.40;1.00
3001;DHT22;1510;51.072;6.678;2022-08-25T12:43:23;41.20;1.00
3001;DHT22;1510;51.072;6.678;2022-08-25T12:45:52;41.80;1.00
3001;DHT22;1510;51.072;6.678;2022-08-25T12:51:26;41.80;1.00
3001;DHT22;1510;51.072;6.678;2022-08-25T12:54:00;40.90;1.00
3001;DHT22;1510;51.072;6.678;2022-08-25T12:56:41;40.60;1.00
3001;DHT22;1510;51.072;6.678;2022-08-25T12:59:14;40.30;1.00
3001;DHT22;1510;51.072;6.678;2022-08-25T13:09:12;41.40;1.00
3001;DHT22;1510;51.072;6.678;2022-08-25T13:12:10;42.70;1.00
3001;DHT22;1510;51.072;6.678;2022-08-25T13:14:39;42.10;1.00
3001;DHT22;1510;51.072;6.678;2022-08-25T13:17:07;41.60;1.00
3001;DHT22;1510;51.072;6.678;2022-08-25T13:19:35;41.00;1.00
3001;DHT22;1510;51.072;6.678;2022-08-25T13:22:14;41.30;1.00
3001;DHT22;1510;51.072;6.678;2022-08-25T13:24:57;41.10;1.00
3001;DHT22;1510;51.072;6.678;2022-08-25T13:27:33;41.20;1.00
3001;DHT22;1510;51.072;6.678;2022-08-25T13:30:01;41.10;1.00
3001;DHT22;1510;51.072;6.678;2022-08-25T13:32:32;40.90;1.00
3001;DHT22;1510;51.072;6.678;2022-08-25T13:35:10;41.70;1.00
3001;DHT22;1510;51.072;6.678;2022-08-25T13:37:38;41.10;1.00
3001;DHT22;1510;51.072;6.678;2022-08-25T13:40:13;40.80;1.00
3001;DHT22;1510;51.072;6.678;2022-08-25T13:42:44;40.90;1.00
3001;DHT22;1510;51.072;6.678;2022-08-25T13:45:14;41.00;1.00
3001;DHT22;1510;51.072;6.678;2022-08-25T13:50:48;39.90;1.00
3001;DHT22;1510;51.072;6.678;2022-08-25T13:53:22;40.20;1.00
3001;DHT22;1510;51.072;6.678;2022-08-25T13:55:57;39.80;1.00
3001;DHT22;1510;51.072;6.678;2022-08-25T13:58:29;40.40;1.00
3001;DHT22;1510;51.072;6.678;2022-08-25T14:03:52;40.60;1.00
3001;DHT22;1510;51.072;6.678;2022-08-25T14:06:52;41.10;1.00
3001;DHT22;1510;51.072;6.678;2022-08-25T14:09:50;40.90;1.00
3001;DHT22;1510;51.072;6.678;2022-08-25T14:12:42;40.10;1.00
3001;DHT22;1510;51.072;6.678;2022-08-25T14:15:27;39.10;1.00
3001;DHT22;1510;51.072;6.678;2022-08-25T14:22:47;39.70;1.00
3001;DHT22;1510;51.072;6.678;2022-08-25T14:25:33;39.30;1.00
3001;DHT22;1510;51.072;6.678;2022-08-25T14:38:43;39.40;1.00
3001;DHT22;1510;51.072;6.678;2022-08-25T14:41:34;39.50;1.00
3001;DHT22;1510;51.072;6.678;2022-08-25T14:44:06;40.20;1.00
3001;DHT22;1510;51.072;6.678;2022-08-25T14:46:52;41.20;1.00
3001;DHT22;1510;51.072;6.678;2022-08-25T14:49:36;41.60;1.00
3001;DHT22;1510;51.072;6.678;2022-08-25T14:52:33;40.50;1.00
3001;DHT22;1510;51.072;6.678;2022-08-25T14:55:32;39.80;1.00
3001;DHT22;1510;51.072;6.678;2022-08-25T14:58:23;39.70;1.00
3001;DHT22;1510;51.072;6.678;2022-08-25T15:00:51;39.50;1.00
3001;DHT22;1510;51.072;6.678;2022-08-25T15:06:30;41.30;1.00
3001;DHT22;1510;51.072;6.678;2022-08-25T15:09:14;40.80;1.00
3001;DHT22;1510;51.072;6.678;2022-08-25T15:12:16;40.60;1.00
3001;DHT22;1510;51.072;6.678;2022-08-25T15:15:04;40.20;1.00
3001;DHT22;1510;51.072;6.678;2022-08-25T15:17:41;40.40;1.00
3001;DHT22;1510;51.072;6.678;2022-08-25T15:20:26;40.30;1.00
3001;DHT22;1510;51.072;6.678;2022-08-25T15:22:59;40.40;1.00
3001;DHT22;1510;51.072;6.678;2022-08-25T15:25:55;41.10;1.00
3001;DHT22;1510;51.072;6.678;2022-08-25T15:28:50;40.80;1.00
3001;DHT22;1510;51.072;6.678;2022-08-25T15:31:23;39.80;1.00
3001;DHT22;1510;51.072;6.678;2022-08-25T15:33:54;39.80;1.00
3001;DHT22;1510;51.072;6.678;2022-08-25T15:36:24;39.70;1.00
3001;DHT22;1510;51.072;6.678;2022-08-25T15:38:55;39.70;1.00
3001;DHT22;1510;51.072;6.678;2022-08-25T15:41:24;39.90;1.00
3001;DHT22;1510;51.072;6.678;2022-08-25T15:43:58;40.20;1.00
3001;DHT22;1510;51.072;6.678;2022-08-25T15:46:29;40.40;1.00
3001;DHT22;1510;51.072;6.678;2022-08-25T15:48:59;40.60;1.00
3001;DHT22;1510;51.072;6.678;2022-08-25T15:51:29;40.50;1.00
3001;DHT22;1510;51.072;6.678;2022-08-25T15:54:10;40.40;1.00
3001;DHT22;1510;51.072;6.678;2022-08-25T15:56:55;40.70;1.00
3001;DHT22;1510;51.072;6.678;2022-08-25T15:59:28;39.60;1.00
3001;DHT22;1510;51.072;6.678;2022-08-25T16:05:11;40.00;1.00
3001;DHT22;1510;51.072;6.678;2022-08-25T16:07:45;40.40;1.00
3001;DHT22;1510;51.072;6.678;2022-08-25T16:10:24;40.20;1.00
3001;DHT22;1510;51.072;6.678;2022-08-25T16:13:25;40.30;1.00
3001;DHT22;1510;51.072;6.678;2022-08-25T16:16:01;39.80;1.00
3001;DHT22;1510;51.072;6.678;2022-08-25T16:18:37;39.50;1.00
3001;DHT22;1510;51.072;6.678;2022-08-25T16:21:19;39.60;1.00
3001;DHT22;1510;51.072;6.678;2022-08-25T16:23:53;38.90;1.00
3001;DHT22;1510;51.072;6.678;2022-08-25T16:26:42;39.40;1.00
3001;DHT22;1510;51.072;6.678;2022-08-25T16:29:39;38.60;1.00
3001;DHT22;1510;51.072;6.678;2022-08-25T16:32:56;38.30;1.00
3001;DHT22;1510;51.072;6.678;2022-08-25T16:35:42;38.30;1.00
3001;DHT22;1510;51.072;6.678;2022-08-25T16:38:35;38.40;1.00
3001;DHT22;1510;51.072;6.678;2022-08-25T16:41:21;38.40;1.00
3001;DHT22;1510;51.072;6.678;2022-08-25T16:44:22;39.20;1.00
3001;DHT22;1510;51.072;6.678;2022-08-25T16:46:58;39.20;1.00
3001;DHT22;1510;51.072;6.678;2022-08-25T16:50:14;38.90;1.00
3001;DHT22;1510;51.072;6.678;2022-08-25T16:53:19;38.70;1.00
3001;DHT22;1510;51.072;6.678;2022-08-25T16:56:09;39.00;1.00
3001;DHT22;1510;51.072;6.678;2022-08-25T16:59:04;39.10;1.00
3001;DHT22;1510;51.072;6.678;2022-08-25T17:19:47;36.90;1.00
3001;DHT22;1510;51.072;6.678;2022-08-25T17:21:47;35.80;1.00
3001;DHT22;1510;51.072;6.678;2022-08-25T17:24:25;34.70;1.00
3001;DHT22;1510;51.072;6.678;2022-08-25T17:27:05;33.50;1.00
3001;DHT22;1510;51.072;6.678;2022-08-25T17:29:35;33.10;1.00
3001;DHT22;1510;51.072;6.678;2022-08-25T17:32:03;32.80;1.00
3001;DHT22;1510;51.072;6.678;2022-08-25T17:34:30;33.20;1.00
3001;DHT22;1510;51.072;6.678;2022-08-25T17:37:03;33.20;1.00
3001;DHT22;1510;51.072;6.678;2022-08-25T17:39:31;32.60;1.00
3001;DHT22;1510;51.072;6.678;2022-08-25T17:41:58;32.00;1.00
3001;DHT22;1510;51.072;6.678;2022-08-25T17:44:25;31.80;1.00
3001;DHT22;1510;51.072;6.678;2022-08-25T17:46:53;32.20;1.00
3001;DHT22;1510;51.072;6.678;2022-08-25T17:49:20;32.40;1.00
3001;DHT22;1510;51.072;6.678;2022-08-25T17:51:46;32.10;1.00
3001;DHT22;1510;51.072;6.678;2022-08-25T17:54:13;32.10;1.00
3001;DHT22;1510;51.072;6.678;2022-08-25T17:56:40;31.90;1.00
3001;DHT22;1510;51.072;6.678;2022-08-25T17:59:07;31.20;1.00
3001;DHT22;1510;51.072;6.678;2022-08-25T18:01:37;30.90;1.00
3001;DHT22;1510;51.072;6.678;2022-08-25T18:04:05;30.40;1.00
3001;DHT22;1510;51.072;6.678;2022-08-25T18:06:32;29.90;1.00
3001;DHT22;1510;51.072;6.678;2022-08-25T18:08:59;29.20;1.00
3001;DHT22;1510;51.072;6.678;2022-08-25T18:11:28;28.70;1.00
3001;DHT22;1510;51.072;6.678;2022-08-25T18:13:57;28.20;1.00
3001;DHT22;1510;51.072;6.678;2022-08-25T18:16:24;27.80;1.00
3001;DHT22;1510;51.072;6.678;2022-08-25T18:18:54;27.40;1.00
3001;DHT22;1510;51.072;6.678;2022-08-25T18:21:23;27.10;1.00
3001;DHT22;1510;51.072;6.678;2022-08-25T18:23:51;26.80;1.00
3001;DHT22;1510;51.072;6.678;2022-08-25T18:26:20;26.50;1.00
3001;DHT22;1510;51.072;6.678;2022-08-25T18:28:47;26.40;1.00
3001;DHT22;1510;51.072;6.678;2022-08-25T18:31:14;26.10;1.00
3001;DHT22;1510;51.072;6.678;2022-08-25T18:33:41;25.80;1.00
3001;DHT22;1510;51.072;6.678;2022-08-25T18:36:11;25.50;1.00